Time;durP1;ratioP1;P1;durP2;ratioP2;P2;SDS_P1;SDS_P2;PMS_P1;PMS_P2;Temp;Humidity;BMP_temperature;BMP_pressure;BME280_temperature;BME280_humidity;BME280_pressure;Samples;Min_cycle;Max_cycle;Signal;HPM_P1;HPM_P2
2022/06/09 07:58:58;;;;;;;6.53;3.55;;;;;;;14.95;92.64;101204.66;5322405;27;20347;-69
2022/06/09 08:01:29;;;;;;;4.43;2.65;;;;;;;15.07;92.58;101203.34;5321850;28;20043;-69
2022/06/09 08:04:02;;;;;;;5.93;3.20;;;;;;;15.24;92.49;101209.13;5312462;28;20126;-69
2022/06/09 08:06:33;;;;;;;4.78;2.63;;;;;;;15.23;90.16;101211.06;5300591;28;20077;-70
2022/06/09 08:09:05;;;;;;;9.27;4.15;;;;;;;15.42;90.97;101213.75;5300761;28;20020;-72
2022/06/09 08:11:37;;;;;;;4.15;2.70;;;;;;;15.36;88.96;101212.19;5301034;28;20455;-74
2022/06/09 08:14:08;;;;;;;6.07;2.67;;;;;;;15.43;89.34;101220.16;5300360;28;20034;-72
2022/06/09 08:16:41;;;;;;;4.72;2.65;;;;;;;15.45;89.59;101229.06;5300974;28;20032;-72
2022/06/09 08:19:12;;;;;;;5.15;2.92;;;;;;;15.49;89.76;101232.84;5300953;28;20036;-72
2022/06/09 08:21:43;;;;;;;3.35;2.45;;;;;;;15.57;88.41;101232.13;5315966;28;20085;-73
2022/06/09 08:24:16;;;;;;;3.85;2.45;;;;;;;15.57;87.58;101232.13;5321801;28;20028;-73
2022/06/09 08:26:48;;;;;;;4.82;2.03;;;;;;;15.63;86.81;101235.63;5321623;28;20024;-72
2022/06/09 08:29:19;;;;;;;4.18;2.05;;;;;;;15.66;85.88;101238.63;5321055;28;20027;-72
2022/06/09 08:31:53;;;;;;;4.93;1.90;;;;;;;15.63;85.96;101244.84;5309397;28;20029;-72
2022/06/09 08:34:25;;;;;;;5.43;2.30;;;;;;;15.72;87.38;101247.78;5309830;28;20417;-72
2022/06/09 08:36:57;;;;;;;3.83;2.15;;;;;;;15.75;85.87;101246.31;5309375;28;20107;-72
2022/06/09 08:39:28;;;;;;;5.57;2.42;;;;;;;15.81;87.05;101243.06;5301565;28;20483;-72
2022/06/09 08:42:19;;;;;;;4.07;2.55;;;;;;;15.82;86.13;101249.47;5310929;28;20029;-69
2022/06/09 08:45:17;;;;;;;7.43;2.42;;;;;;;15.88;85.59;101255.81;5300949;28;20095;-69
2022/06/09 08:47:54;;;;;;;5.95;2.33;;;;;;;15.98;85.86;101263.97;5301994;28;20459;-69
2022/06/09 08:50:38;;;;;;;12.00;8.70;;;;;;;16.07;84.00;101262.88;5320658;28;20049;-69
2022/06/09 08:53:25;;;;;;;56.83;46.28;;;;;;;16.13;82.71;101271.97;5308999;28;20353;-69
2022/06/09 08:56:09;;;;;;;10.00;8.00;;;;;;;16.15;82.08;101271.66;5300287;28;20086;-72
2022/06/09 08:58:56;;;;;;;7.93;5.68;;;;;;;16.12;80.33;101270.31;5335991;28;20070;-72
2022/06/09 09:01:59;;;;;;;113.35;101.72;;;;;;;16.17;79.24;101273.00;5342937;28;20075;-72
2022/06/09 09:04:37;;;;;;;6.55;3.55;;;;;;;16.24;80.10;101278.16;5259029;28;20052;-73
2022/06/09 09:07:27;;;;;;;3.20;1.92;;;;;;;16.29;81.46;101286.44;5340062;28;20024;-72
2022/06/09 09:10:07;;;;;;;4.53;2.55;;;;;;;16.34;83.64;101280.69;5329372;28;20085;-72
2022/06/09 09:13:00;;;;;;;4.45;3.17;;;;;;;16.36;83.80;101281.22;5313305;28;20098;-72
2022/06/09 09:15:44;;;;;;;5.32;3.65;;;;;;;16.36;84.17;101284.00;5306591;28;20028;-74
2022/06/09 09:18:38;;;;;;;5.97;3.30;;;;;;;16.38;83.86;101284.50;5307041;28;20028;-72
2022/06/09 09:21:31;;;;;;;4.82;2.60;;;;;;;16.36;81.82;101288.75;5306728;28;20035;-71
2022/06/09 09:24:23;;;;;;;5.10;3.05;;;;;;;16.44;82.41;101290.81;5312706;28;20040;-72
2022/06/09 09:27:03;;;;;;;7.90;2.70;;;;;;;16.39;82.99;101294.56;5327875;28;20445;-72
2022/06/09 09:30:02;;;;;;;5.03;2.78;;;;;;;16.40;82.63;101301.00;5312333;28;20040;-72
2022/06/09 09:32:43;;;;;;;6.30;2.97;;;;;;;16.36;82.89;101303.59;5305649;28;20020;-72
2022/06/09 09:35:22;;;;;;;6.20;3.30;;;;;;;16.36;82.84;101312.00;5322151;28;20518;-72
2022/06/09 09:37:55;;;;;;;5.22;3.35;;;;;;;16.36;83.21;101309.19;5326257;28;20032;-69
2022/06/09 09:40:34;;;;;;;5.60;3.10;;;;;;;16.44;83.40;101310.41;5327247;28;20020;-72
2022/06/09 09:43:14;;;;;;;4.63;3.40;;;;;;;16.44;83.26;101311.22;5327685;28;20047;-72
2022/06/09 09:45:52;;;;;;;6.63;3.38;;;;;;;16.46;82.54;101316.50;5318071;28;20106;-73
2022/06/09 09:48:24;;;;;;;5.03;2.90;;;;;;;16.55;82.65;101317.41;5310854;28;20036;-74
2022/06/09 09:51:12;;;;;;;5.45;3.42;;;;;;;16.66;83.34;101323.56;5307030;28;20073;-73
2022/06/09 09:53:46;;;;;;;5.35;3.50;;;;;;;16.61;83.12;101324.50;5305537;28;20467;-72
2022/06/09 09:56:17;;;;;;;7.10;3.50;;;;;;;16.73;84.15;101335.97;5306119;28;20120;-69
2022/06/09 09:58:48;;;;;;;5.47;3.10;;;;;;;16.89;83.75;101327.19;5305635;28;20130;-71
2022/06/09 10:01:20;;;;;;;6.35;3.08;;;;;;;17.06;82.30;101318.06;5305285;28;20115;-70
2022/06/09 10:10:16;;;;;;;5.53;3.75;;;;;;;16.92;84.41;101338.59;5322924;28;20024;-70
2022/06/09 10:12:48;;;;;;;6.68;3.67;;;;;;;16.85;84.57;101355.03;5326875;28;20098;-71
2022/06/09 10:15:21;;;;;;;7.43;4.57;;;;;;;16.71;87.24;101371.84;5325885;28;20129;-70
2022/06/09 10:17:55;;;;;;;6.13;4.13;;;;;;;16.53;89.87;101356.91;5326256;28;20036;-70
2022/06/09 10:20:27;;;;;;;4.13;2.75;;;;;;;16.41;82.84;101351.06;5312214;28;20056;-70
2022/06/09 10:23:09;;;;;;;6.13;3.13;;;;;;;16.44;84.45;101367.22;5323900;28;20096;-69
2022/06/09 10:25:54;;;;;;;5.57;4.07;;;;;;;16.43;89.98;101359.94;5326338;28;20031;-69
2022/06/09 10:28:26;;;;;;;26.20;23.42;;;;;;;16.49;91.20;101363.47;5325696;28;20031;-69
2022/06/09 10:31:12;;;;;;;19.50;17.58;;;;;;;16.56;91.08;101365.81;5307646;28;20032;-70
2022/06/09 10:33:43;;;;;;;9.65;8.75;;;;;;;16.67;92.63;101362.47;5304973;28;20032;-71
2022/06/09 10:36:27;;;;;;;7.80;6.43;;;;;;;16.74;93.07;101371.25;5309243;28;20058;-71
2022/06/09 10:39:11;;;;;;;13.05;11.77;;;;;;;16.97;95.32;101373.22;5305041;28;20294;-71
2022/06/09 10:41:56;;;;;;;9.68;8.80;;;;;;;17.12;94.62;101368.03;5304315;28;20028;-71
2022/06/09 10:44:37;;;;;;;7.85;7.15;;;;;;;17.17;92.41;101375.47;5313857;28;20028;-71
2022/06/09 10:57:30;;;;;;;9.60;8.77;;;;;;;17.70;86.88;101380.16;5301144;28;20056;-70
2022/06/09 11:00:17;;;;;;;11.30;8.45;;;;;;;17.61;85.98;101384.91;5296120;28;20035;-71
2022/06/09 11:02:54;;;;;;;8.52;7.03;;;;;;;17.74;85.24;101386.78;5305048;28;20380;-71
2022/06/09 11:05:50;;;;;;;6.13;4.65;;;;;;;17.64;78.27;101381.47;5304839;28;20142;-71
2022/06/09 11:08:52;;;;;;;5.22;4.45;;;;;;;17.63;77.34;101378.97;5304896;28;20456;-71
2022/06/09 11:11:33;;;;;;;5.40;4.95;;;;;;;17.71;81.42;101398.63;5315150;28;20043;-70
2022/06/09 11:14:17;;;;;;;8.45;4.97;;;;;;;17.64;78.23;101397.44;5325564;28;20027;-70
2022/06/09 11:16:51;;;;;;;6.72;4.07;;;;;;;17.73;78.36;101401.94;5318415;28;20368;-71
2022/06/09 11:19:41;;;;;;;6.55;3.20;;;;;;;17.81;77.50;101398.38;5325390;28;20035;-69
2022/06/09 11:22:24;;;;;;;4.68;3.25;;;;;;;17.90;76.62;101408.81;5323617;28;20378;-69
2022/06/09 11:25:27;;;;;;;6.80;3.42;;;;;;;17.87;77.18;101395.41;5312807;28;20482;-69
2022/06/09 11:28:04;;;;;;;25.92;22.67;;;;;;;17.75;75.84;101402.44;5307414;28;20044;-70
2022/06/09 11:31:11;;;;;;;24.58;22.02;;;;;;;17.60;74.43;101400.09;5303678;28;20028;-70
2022/06/09 11:33:57;;;;;;;6.65;4.20;;;;;;;17.58;75.65;101403.19;5303734;28;20471;-70
2022/06/09 11:36:45;;;;;;;6.97;4.30;;;;;;;17.52;76.21;101410.13;5304008;28;20039;-70
2022/06/09 11:39:35;;;;;;;21.52;18.35;;;;;;;17.55;78.33;101414.25;5304125;28;20028;-69
2022/06/09 11:42:19;;;;;;;7.53;4.78;;;;;;;17.50;76.53;101425.63;5304438;28;20383;-69
2022/06/09 11:44:53;;;;;;;5.75;3.58;;;;;;;17.41;74.67;101427.53;5311528;28;20038;-69
2022/06/09 11:47:31;;;;;;;5.40;3.65;;;;;;;17.43;75.25;101430.84;5325232;28;20256;-70
2022/06/09 11:50:07;;;;;;;6.45;3.22;;;;;;;17.36;72.90;101434.94;5317629;28;20066;-71
2022/06/09 11:52:44;;;;;;;7.95;4.05;;;;;;;17.32;73.00;101436.72;5308285;28;20038;-71
2022/06/09 11:56:02;;;;;;;8.18;3.55;;;;;;;17.46;75.82;101442.25;5321781;28;20534;-71
2022/06/09 11:58:34;;;;;;;8.35;4.05;;;;;;;17.48;73.59;101444.72;5314150;28;20387;-72
2022/06/09 12:01:20;;;;;;;9.25;4.38;;;;;;;17.53;75.13;101451.03;5321049;28;20035;-71
2022/06/09 12:04:10;;;;;;;7.28;3.40;;;;;;;17.53;72.19;101458.59;5324711;28;20455;-70
2022/06/09 12:06:59;;;;;;;6.80;2.83;;;;;;;17.50;72.31;101453.66;5324252;28;20031;-71
2022/06/09 12:09:42;;;;;;;9.55;4.75;;;;;;;17.49;71.48;101452.00;5325048;28;20035;-71
2022/06/09 12:12:26;;;;;;;21.30;19.40;;;;;;;17.47;71.68;101457.09;5324938;28;20028;-72
2022/06/09 12:15:09;;;;;;;11.05;5.82;;;;;;;17.42;71.09;101462.84;5323862;28;20391;-71
2022/06/09 12:18:01;;;;;;;6.80;4.50;;;;;;;17.47;72.88;101468.31;5304979;28;20032;-71
2022/06/09 12:21:05;;;;;;;7.70;3.17;;;;;;;17.44;75.31;101469.78;5311494;28;20312;-71
2022/06/09 12:24:14;;;;;;;6.82;5.38;;;;;;;17.35;80.92;101468.91;5283629;28;20103;-71
2022/06/09 12:26:50;;;;;;;9.80;6.50;;;;;;;17.24;81.98;101468.34;5302798;28;20028;-71
2022/06/09 12:29:21;;;;;;;6.40;5.65;;;;;;;17.21;82.87;101462.56;5303624;28;20024;-71
2022/06/09 12:32:10;;;;;;;9.20;5.78;;;;;;;17.20;82.59;101463.69;5315264;28;20039;-72
2022/06/09 12:34:50;;;;;;;7.88;6.18;;;;;;;17.14;82.62;101474.22;5312152;28;20024;-72
2022/06/09 12:37:27;;;;;;;8.50;6.72;;;;;;;17.19;83.55;101476.06;5303168;28;20051;-72
2022/06/09 12:40:07;;;;;;;9.35;5.45;;;;;;;17.26;82.52;101471.66;5303686;28;20020;-72
2022/06/09 12:42:58;;;;;;;12.68;9.90;;;;;;;17.51;82.83;101480.53;5302665;28;20029;-72
2022/06/09 12:45:35;;;;;;;7.22;5.88;;;;;;;17.87;81.71;101482.38;5313697;28;20024;-72
2022/06/09 12:48:11;;;;;;;10.55;6.15;;;;;;;17.94;80.09;101488.38;5327897;28;20084;-71
2022/06/09 12:50:49;;;;;;;12.23;5.72;;;;;;;17.87;78.41;101490.81;5328589;28;20024;-72
2022/06/09 12:53:25;;;;;;;8.90;5.35;;;;;;;17.80;78.55;101492.09;5316314;28;20027;-71
2022/06/09 12:56:18;;;;;;;10.27;5.10;;;;;;;17.81;79.35;101492.94;5306291;28;20030;-71
2022/06/09 12:58:50;;;;;;;8.43;4.25;;;;;;;17.74;78.74;101503.75;5305991;28;20048;-71
2022/06/09 13:01:29;;;;;;;7.18;3.30;;;;;;;17.70;75.77;101503.56;5307213;28;20051;-70
2022/06/09 13:04:05;;;;;;;8.98;3.97;;;;;;;17.68;75.80;101510.66;5306333;28;20070;-71
2022/06/09 13:06:39;;;;;;;7.32;3.95;;;;;;;17.68;76.29;101507.84;5306776;28;20162;-71
2022/06/09 13:09:24;;;;;;;4.15;3.05;;;;;;;17.65;74.95;101512.13;5309719;28;20084;-70
2022/06/09 13:15:12;;;;;;;8.38;2.95;;;;;;;17.80;75.42;101506.13;5328003;28;20134;-70
2022/06/09 13:17:49;;;;;;;5.82;2.60;;;;;;;18.04;72.88;101507.72;5313945;28;20032;-71
2022/06/09 13:20:24;;;;;;;5.53;2.50;;;;;;;18.34;70.13;101506.00;5328288;28;20024;-72
2022/06/09 13:22:56;;;;;;;7.95;3.30;;;;;;;18.66;69.72;101506.72;5317644;28;20028;-73
2022/06/09 13:25:28;;;;;;;9.50;3.45;;;;;;;18.84;65.26;101501.97;5305765;28;20103;-74
2022/06/09 13:28:00;;;;;;;5.68;2.33;;;;;;;18.77;61.55;101504.47;5318652;28;20103;-74
2022/06/09 13:30:50;;;;;;;5.35;2.25;;;;;;;18.62;61.05;101514.97;5327250;28;20466;-73
2022/06/09 13:33:29;;;;;;;5.57;1.80;;;;;;;18.64;63.02;101504.25;5328290;28;20028;-74
2022/06/09 13:36:41;;;;;;;5.13;1.95;;;;;;;18.69;60.36;101512.50;5306376;28;20049;-73
2022/06/09 13:39:24;;;;;;;3.78;2.08;;;;;;;19.03;59.36;101510.91;5306297;28;20035;-72
2022/06/09 13:42:17;;;;;;;4.93;2.00;;;;;;;19.38;59.95;101521.28;5314650;28;20023;-72
2022/06/09 13:44:59;;;;;;;5.72;1.83;;;;;;;19.54;57.04;101526.06;5308593;28;20115;-72
2022/06/09 13:47:36;;;;;;;5.82;2.50;;;;;;;19.63;57.90;101526.03;5306236;28;20032;-72
2022/06/09 13:50:11;;;;;;;7.60;3.70;;;;;;;19.50;58.18;101519.44;5306604;28;20024;-71
2022/06/09 13:53:10;;;;;;;4.40;2.22;;;;;;;19.39;57.25;101528.56;5315174;28;20110;-72
2022/06/09 13:55:42;;;;;;;7.10;2.10;;;;;;;19.24;56.23;101527.91;5326596;28;20516;-72
2022/06/09 13:58:13;;;;;;;5.28;2.10;;;;;;;19.21;56.97;101539.00;5306750;28;20052;-72
2022/06/09 14:00:52;;;;;;;6.47;1.83;;;;;;;19.14;55.75;101538.69;5311663;28;20048;-71
2022/06/09 14:03:30;;;;;;;6.45;2.00;;;;;;;19.20;54.97;101543.81;5306068;28;20020;-70
2022/06/09 14:06:05;;;;;;;3.58;1.50;;;;;;;19.04;53.50;101540.66;5320453;28;20114;-70
2022/06/09 14:08:44;;;;;;;6.13;1.50;;;;;;;19.14;54.81;101544.31;5326854;28;20126;-69
2022/06/09 14:11:23;;;;;;;4.03;1.90;;;;;;;19.31;55.93;101544.31;5326484;28;20062;-70
2022/06/09 14:13:56;;;;;;;3.80;1.42;;;;;;;19.29;56.15;101546.63;5326171;28;20449;-70
2022/06/09 14:16:37;;;;;;;24.80;20.50;;;;;;;19.36;57.20;101558.19;5325783;28;20019;-70
2022/06/09 14:19:12;;;;;;;5.43;2.20;;;;;;;19.23;55.97;101562.84;5324855;28;20067;-70
2022/06/09 14:21:44;;;;;;;7.15;1.90;;;;;;;19.14;55.84;101566.78;5323825;28;20023;-69
2022/06/09 14:24:18;;;;;;;5.18;2.15;;;;;;;19.19;57.96;101559.00;5314969;28;20076;-72
2022/06/09 14:26:52;;;;;;;14.53;3.00;;;;;;;19.17;57.77;101571.75;5325073;28;20032;-70
2022/06/09 14:29:24;;;;;;;4.78;2.00;;;;;;;19.14;57.90;101569.59;5306590;28;20356;-70
2022/06/09 14:31:55;;;;;;;7.88;3.60;;;;;;;19.05;57.35;101575.25;5312074;28;20069;-69
2022/06/09 14:34:27;;;;;;;12.70;6.32;;;;;;;18.94;55.71;101576.69;5311093;28;20019;-69
2022/06/09 14:36:58;;;;;;;7.68;2.50;;;;;;;19.05;57.09;101581.69;5326146;28;20027;-69
2022/06/09 14:39:30;;;;;;;7.80;3.83;;;;;;;19.15;56.25;101585.31;5306317;28;20024;-70
2022/06/09 14:42:04;;;;;;;6.32;2.80;;;;;;;19.39;54.59;101588.47;5306962;28;20016;-70
2022/06/09 14:44:35;;;;;;;5.47;1.70;;;;;;;19.55;52.86;101578.34;5320024;28;20102;-70
2022/06/09 14:47:17;;;;;;;7.13;2.33;;;;;;;19.82;53.84;101576.34;5323119;28;20035;-70
2022/06/09 14:49:50;;;;;;;5.43;1.65;;;;;;;19.88;54.57;101583.44;5311004;28;20015;-70
2022/06/09 14:52:21;;;;;;;5.05;1.60;;;;;;;19.81;52.83;101585.94;5312747;28;20047;-70
2022/06/09 14:54:54;;;;;;;5.28;2.00;;;;;;;19.85;54.98;101589.75;5315460;28;20031;-69
2022/06/09 14:57:25;;;;;;;4.07;2.08;;;;;;;19.72;54.45;101593.59;5313469;28;20196;-70
2022/06/09 14:59:57;;;;;;;7.07;2.30;;;;;;;19.68;55.05;101592.59;5322498;28;20201;-71
2022/06/09 15:02:28;;;;;;;6.40;2.08;;;;;;;19.57;54.92;101594.91;5308361;28;20475;-70
2022/06/09 15:04:59;;;;;;;22.48;20.17;;;;;;;19.75;54.14;101598.53;5303857;28;20479;-69
2022/06/09 15:07:30;;;;;;;6.72;2.65;;;;;;;19.72;54.08;101599.22;5310929;28;20027;-70
2022/06/09 15:10:04;;;;;;;5.57;2.10;;;;;;;19.68;54.89;101610.28;5319236;28;20340;-70
2022/06/09 15:12:36;;;;;;;5.80;2.35;;;;;;;19.58;55.38;101604.97;5325409;28;20031;-70
2022/06/09 15:15:11;;;;;;;7.68;2.30;;;;;;;19.37;54.99;101620.88;5304322;28;20054;-69
2022/06/09 15:17:44;;;;;;;4.30;1.77;;;;;;;19.32;55.57;101616.25;5303314;28;20091;-69
2022/06/09 15:20:20;;;;;;;5.22;1.95;;;;;;;19.44;56.65;101610.78;5313533;28;20046;-70
2022/06/09 15:22:52;;;;;;;6.90;1.80;;;;;;;19.55;56.13;101603.66;5324326;28;20027;-71
2022/06/09 15:25:25;;;;;;;7.45;2.30;;;;;;;19.87;55.08;101612.75;5324482;28;20024;-70
2022/06/09 15:27:57;;;;;;;5.45;2.10;;;;;;;19.90;54.26;101605.63;5321494;28;20356;-70
2022/06/09 15:30:50;;;;;;;6.90;2.60;;;;;;;20.12;54.25;101601.75;5324284;28;20050;-72
2022/06/09 15:33:25;;;;;;;6.93;2.35;;;;;;;20.13;52.33;101620.31;5303121;28;20055;-71
2022/06/09 15:35:56;;;;;;;15.93;10.50;;;;;;;20.43;52.84;101609.94;5307343;28;20442;-71
2022/06/09 15:38:28;;;;;;;8.25;2.38;;;;;;;20.55;51.78;101612.03;5315847;28;20126;-71
2022/06/09 15:41:00;;;;;;;20.90;16.27;;;;;;;20.60;50.96;101609.84;5311411;28;20024;-70
2022/06/09 15:43:31;;;;;;;29.10;24.75;;;;;;;20.40;50.03;101617.06;5304749;28;20039;-71
2022/06/09 15:46:02;;;;;;;5.65;3.28;;;;;;;20.09;48.87;101614.50;5311533;28;20359;-71
2022/06/09 15:48:34;;;;;;;8.85;4.35;;;;;;;20.25;50.63;101626.06;5325058;28;20505;-75
2022/06/09 15:51:05;;;;;;;8.63;3.30;;;;;;;20.18;49.21;101626.59;5311351;28;20028;-72
2022/06/09 15:53:37;;;;;;;6.03;2.15;;;;;;;20.19;48.27;101635.84;5310894;28;20050;-71
2022/06/09 15:56:10;;;;;;;5.70;1.98;;;;;;;20.29;47.46;101635.47;5309610;28;20028;-69
2022/06/09 15:58:41;;;;;;;12.52;2.25;;;;;;;20.40;48.41;101628.34;5321265;28;20469;-67
2022/06/09 16:01:14;;;;;;;6.15;2.60;;;;;;;20.48;48.61;101637.91;5307770;28;20111;-67
2022/06/09 16:03:46;;;;;;;5.97;2.03;;;;;;;20.55;47.53;101623.31;5320453;28;20471;-70
2022/06/09 16:06:17;;;;;;;5.13;2.00;;;;;;;20.56;47.65;101633.44;5319944;28;20024;-68
2022/06/09 16:08:49;;;;;;;5.30;1.73;;;;;;;20.71;45.36;101629.19;5311685;28;20027;-68
2022/06/09 16:11:22;;;;;;;4.32;2.00;;;;;;;20.77;44.13;101631.50;5307289;28;20020;-68
2022/06/09 16:13:54;;;;;;;4.78;1.40;;;;;;;21.05;44.91;101639.44;5306445;28;20021;-68
2022/06/09 16:16:25;;;;;;;6.40;3.13;;;;;;;21.03;43.65;101636.97;5314049;28;20028;-68
2022/06/09 16:18:56;;;;;;;7.18;2.50;;;;;;;20.95;43.76;101629.41;5311011;28;20042;-69
2022/06/09 16:21:28;;;;;;;7.35;2.20;;;;;;;20.93;43.25;101636.53;5319719;28;20023;-68
2022/06/09 16:24:02;;;;;;;3.63;1.60;;;;;;;21.10;44.00;101629.97;5315443;28;20020;-68
2022/06/09 16:26:34;;;;;;;4.25;1.55;;;;;;;20.91;42.11;101622.78;5310823;28;20028;-68
2022/06/09 16:29:05;;;;;;;7.05;2.38;;;;;;;20.91;41.88;101644.50;5314928;28;20479;-69
2022/06/09 16:31:38;;;;;;;6.50;1.70;;;;;;;20.83;42.47;101635.75;5328751;28;20028;-69
2022/06/09 16:34:09;;;;;;;7.85;1.60;;;;;;;20.94;42.82;101632.53;5320235;28;20036;-69
2022/06/09 16:36:40;;;;;;;5.55;2.78;;;;;;;20.93;41.43;101648.63;5318591;28;20384;-68
2022/06/09 16:39:14;;;;;;;6.13;1.92;;;;;;;21.00;41.82;101642.47;5311013;28;20028;-69
2022/06/09 16:41:46;;;;;;;4.45;1.63;;;;;;;20.92;42.49;101646.19;5319085;28;20032;-69
2022/06/09 16:44:17;;;;;;;5.25;1.90;;;;;;;21.01;42.58;101644.13;5307370;28;20032;-69
2022/06/09 16:46:48;;;;;;;4.57;1.55;;;;;;;21.24;43.04;101645.47;5307351;28;20024;-68
2022/06/09 16:49:20;;;;;;;5.43;1.95;;;;;;;21.40;42.73;101648.53;5306315;28;20103;-69
2022/06/09 16:51:52;;;;;;;3.05;1.60;;;;;;;21.31;40.76;101652.53;5323938;28;20027;-68
2022/06/09 16:54:23;;;;;;;6.53;4.28;;;;;;;21.37;42.52;101653.97;5322053;28;20051;-68
2022/06/09 16:56:55;;;;;;;28.15;24.13;;;;;;;21.43;41.68;101652.66;5307121;28;20027;-70
2022/06/09 16:59:29;;;;;;;17.58;12.90;;;;;;;21.36;41.22;101663.63;5288693;28;20032;-69
2022/06/09 17:02:01;;;;;;;13.77;10.63;;;;;;;21.42;41.67;101660.31;5312969;28;20028;-69
2022/06/09 17:04:33;;;;;;;9.63;4.88;;;;;;;21.40;41.84;101657.00;5312252;28;20467;-69
2022/06/09 17:07:06;;;;;;;6.35;2.42;;;;;;;21.56;42.02;101660.00;5308935;28;20036;-69
2022/06/09 17:09:39;;;;;;;6.05;2.30;;;;;;;21.61;41.13;101667.44;5311029;28;20024;-70
2022/06/09 17:12:11;;;;;;;4.85;2.30;;;;;;;21.57;41.69;101661.66;5325820;28;20024;-69
2022/06/09 17:14:46;;;;;;;5.68;1.90;;;;;;;21.49;40.46;101668.19;5327599;28;20034;-69
2022/06/09 17:17:18;;;;;;;4.28;1.75;;;;;;;21.63;40.74;101671.56;5327208;28;20031;-69
2022/06/09 17:19:50;;;;;;;5.10;1.73;;;;;;;21.49;39.96;101679.47;5314335;28;20030;-70
2022/06/09 17:22:21;;;;;;;5.95;1.90;;;;;;;21.67;41.12;101678.16;5327145;28;20542;-69
2022/06/09 17:24:53;;;;;;;4.10;1.58;;;;;;;21.62;41.00;101680.38;5318241;28;20028;-69
2022/06/09 17:27:24;;;;;;;7.78;1.98;;;;;;;21.60;41.42;101689.19;5306485;28;20028;-69
2022/06/09 17:29:57;;;;;;;6.13;2.17;;;;;;;21.69;42.09;101686.28;5304972;28;20078;-69
